sensor_id;sensor_type;location;lat;lon;timestamp;pressure;altitude;pressure_sealevel;temperature;humidity
73674;BME280;61975;48.660;10.164;2023-08-07T00:00:30;95318.59;;;10.26;100.00
73674;BME280;61975;48.660;10.164;2023-08-07T00:02:56;95325.72;;;10.27;100.00
73674;BME280;61975;48.660;10.164;2023-08-07T00:05:21;95328.13;;;10.32;100.00
73674;BME280;61975;48.660;10.164;2023-08-07T00:07:47;95332.56;;;10.44;100.00
73674;BME280;61975;48.660;10.164;2023-08-07T00:10:12;95328.94;;;10.36;100.00
73674;BME280;61975;48.660;10.164;2023-08-07T00:12:38;95336.09;;;10.44;100.00
73674;BME280;61975;48.660;10.164;2023-08-07T00:15:04;95331.38;;;10.45;100.00
73674;BME280;61975;48.660;10.164;2023-08-07T00:17:29;95342.44;;;10.41;100.00
73674;BME280;61975;48.660;10.164;2023-08-07T00:19:55;95338.03;;;10.33;100.00
73674;BME280;61975;48.660;10.164;2023-08-07T00:22:20;95326.94;;;10.33;100.00
73674;BME280;61975;48.660;10.164;2023-08-07T00:24:46;95330.91;;;10.32;100.00
73674;BME280;61975;48.660;10.164;2023-08-07T00:27:11;95338.47;;;10.39;100.00
73674;BME280;61975;48.660;10.164;2023-08-07T00:29:37;95338.47;;;10.35;100.00
73674;BME280;61975;48.660;10.164;2023-08-07T00:32:03;95352.75;;;10.44;100.00
73674;BME280;61975;48.660;10.164;2023-08-07T00:34:29;95336.06;;;10.37;100.00
73674;BME280;61975;48.660;10.164;2023-08-07T00:36:54;95339.63;;;10.34;100.00
73674;BME280;61975;48.660;10.164;2023-08-07T00:39:20;95348.72;;;10.28;100.00
73674;BME280;61975;48.660;10.164;2023-08-07T00:41:45;95338.00;;;10.26;100.00
73674;BME280;61975;48.660;10.164;2023-08-07T00:44:10;95328.91;;;10.29;100.00
73674;BME280;61975;48.660;10.164;2023-08-07T00:46:36;95329.34;;;10.35;100.00
73674;BME280;61975;48.660;10.164;2023-08-07T00:49:03;95328.56;;;10.38;100.00
73674;BME280;61975;48.660;10.164;2023-08-07T00:51:29;95340.06;;;10.40;100.00
73674;BME280;61975;48.660;10.164;2023-08-07T00:53:54;95338.03;;;10.33;100.00
73674;BME280;61975;48.660;10.164;2023-08-07T00:56:20;95331.28;;;10.34;100.00
73674;BME280;61975;48.660;10.164;2023-08-07T00:58:46;95326.94;;;10.33;100.00
73674;BME280;61975;48.660;10.164;2023-08-07T01:01:11;95347.22;;;10.44;100.00
73674;BME280;61975;48.660;10.164;2023-08-07T01:03:37;95340.84;;;10.40;100.00
73674;BME280;61975;48.660;10.164;2023-08-07T01:06:03;95343.28;;;10.45;100.00
73674;BME280;61975;48.660;10.164;2023-08-07T01:08:28;95348.81;;;10.49;100.00
73674;BME280;61975;48.660;10.164;2023-08-07T01:16:24;95346.41;;;10.40;100.00
73674;BME280;61975;48.660;10.164;2023-08-07T01:18:51;95347.53;;;10.29;100.00
73674;BME280;61975;48.660;10.164;2023-08-07T01:21:18;95355.06;;;10.28;100.00
73674;BME280;61975;48.660;10.164;2023-08-07T01:23:46;95351.91;;;10.33;100.00
73674;BME280;61975;48.660;10.164;2023-08-07T01:26:11;95353.50;;;10.34;100.00
73674;BME280;61975;48.660;10.164;2023-08-07T01:28:46;95359.81;;;10.28;100.00
73674;BME280;61975;48.660;10.164;2023-08-07T01:31:19;95359.78;;;10.21;100.00
73674;BME280;61975;48.660;10.164;2023-08-07T01:33:59;95359.34;;;10.19;100.00
73674;BME280;61975;48.660;10.164;2023-08-07T01:36:27;95353.38;;;10.13;100.00
73674;BME280;61975;48.660;10.164;2023-08-07T01:38:55;95352.22;;;10.14;100.00
73674;BME280;61975;48.660;10.164;2023-08-07T01:41:22;95341.94;;;10.18;100.00
73674;BME280;61975;48.660;10.164;2023-08-07T01:43:48;95360.50;;;10.11;100.00
73674;BME280;61975;48.660;10.164;2023-08-07T01:46:13;95357.34;;;10.12;100.00
73674;BME280;61975;48.660;10.164;2023-08-07T01:48:39;95359.72;;;10.14;100.00
73674;BME280;61975;48.660;10.164;2023-08-07T01:51:04;95366.88;;;10.15;100.00
73674;BME280;61975;48.660;10.164;2023-08-07T01:53:29;95351.03;;;10.19;100.00
73674;BME280;61975;48.660;10.164;2023-08-07T01:55:55;95357.00;;;10.17;100.00
73674;BME280;61975;48.660;10.164;2023-08-07T01:58:20;95391.88;;;10.18;100.00
73674;BME280;61975;48.660;10.164;2023-08-07T02:00:45;95363.69;;;10.13;100.00
73674;BME280;61975;48.660;10.164;2023-08-07T02:03:11;95365.31;;;10.17;100.00
73674;BME280;61975;48.660;10.164;2023-08-07T02:05:36;95380.72;;;10.11;100.00
73674;BME280;61975;48.660;10.164;2023-08-07T02:08:01;95353.81;;;10.19;100.00
73674;BME280;61975;48.660;10.164;2023-08-07T02:10:27;95370.81;;;10.14;100.00
73674;BME280;61975;48.660;10.164;2023-08-07T02:12:53;95350.59;;;10.10;100.00
73674;BME280;61975;48.660;10.164;2023-08-07T02:15:18;95351.78;;;10.09;100.00
73674;BME280;61975;48.660;10.164;2023-08-07T02:17:44;95368.88;;;10.14;100.00
73674;BME280;61975;48.660;10.164;2023-08-07T02:20:10;95358.97;;;10.20;100.00
73674;BME280;61975;48.660;10.164;2023-08-07T02:22:35;95361.41;;;10.29;100.00
73674;BME280;61975;48.660;10.164;2023-08-07T02:25:01;95362.97;;;10.26;100.00
73674;BME280;61975;48.660;10.164;2023-08-07T02:27:26;95354.25;;;10.28;100.00
73674;BME280;61975;48.660;10.164;2023-08-07T02:29:51;95364.50;;;10.20;100.00
73674;BME280;61975;48.660;10.164;2023-08-07T02:32:17;95357.38;;;10.19;100.00
73674;BME280;61975;48.660;10.164;2023-08-07T02:34:44;95364.84;;;10.12;100.00
73674;BME280;61975;48.660;10.164;2023-08-07T02:37:09;95370.03;;;10.13;100.00
73674;BME280;61975;48.660;10.164;2023-08-07T02:39:35;95364.47;;;10.13;100.00
73674;BME280;61975;48.660;10.164;2023-08-07T02:42:00;95369.25;;;10.16;100.00
73674;BME280;61975;48.660;10.164;2023-08-07T02:44:25;95389.88;;;10.19;100.00
73674;BME280;61975;48.660;10.164;2023-08-07T02:46:51;95383.56;;;10.22;100.00
73674;BME280;61975;48.660;10.164;2023-08-07T02:49:16;95393.06;;;10.17;100.00
73674;BME280;61975;48.660;10.164;2023-08-07T02:51:41;95381.97;;;10.17;100.00
73674;BME280;61975;48.660;10.164;2023-08-07T02:54:07;95381.53;;;10.19;100.00
73674;BME280;61975;48.660;10.164;2023-08-07T02:56:32;95385.50;;;10.14;100.00
73674;BME280;61975;48.660;10.164;2023-08-07T02:58:58;95384.28;;;10.12;100.00
73674;BME280;61975;48.660;10.164;2023-08-07T03:01:24;95396.59;;;10.18;100.00
73674;BME280;61975;48.660;10.164;2023-08-07T03:03:50;95388.38;;;10.28;100.00
73674;BME280;61975;48.660;10.164;2023-08-07T03:06:15;95395.53;;;10.33;100.00
73674;BME280;61975;48.660;10.164;2023-08-07T03:08:40;95395.84;;;10.21;100.00
73674;BME280;61975;48.660;10.164;2023-08-07T03:11:07;95407.25;;;10.09;100.00
73674;BME280;61975;48.660;10.164;2023-08-07T03:13:33;95390.91;;;10.00;100.00
73674;BME280;61975;48.660;10.164;2023-08-07T03:16:05;95407.56;;;10.04;100.00
73674;BME280;61975;48.660;10.164;2023-08-07T03:18:30;95403.16;;;9.96;100.00
73674;BME280;61975;48.660;10.164;2023-08-07T03:20:56;95419.81;;;9.99;100.00
73674;BME280;61975;48.660;10.164;2023-08-07T03:23:23;95409.16;;;10.01;100.00
73674;BME280;61975;48.660;10.164;2023-08-07T03:25:48;95415.47;;;9.98;100.00
73674;BME280;61975;48.660;10.164;2023-08-07T03:28:14;95422.19;;;9.97;100.00
73674;BME280;61975;48.660;10.164;2023-08-07T03:30:39;95417.00;;;9.92;100.00
73674;BME280;61975;48.660;10.164;2023-08-07T03:33:05;95432.41;;;9.86;100.00
73674;BME280;61975;48.660;10.164;2023-08-07T03:35:31;95428.78;;;9.82;100.00
73674;BME280;61975;48.660;10.164;2023-08-07T03:37:57;95437.56;;;9.88;100.00
73674;BME280;61975;48.660;10.164;2023-08-07T03:40:22;95432.75;;;9.81;100.00
73674;BME280;61975;48.660;10.164;2023-08-07T03:42:47;95426.13;;;9.93;100.00
73674;BME280;61975;48.660;10.164;2023-08-07T03:45:13;95450.19;;;9.82;100.00
73674;BME280;61975;48.660;10.164;2023-08-07T03:47:38;95446.59;;;9.78;100.00
73674;BME280;61975;48.660;10.164;2023-08-07T03:50:05;95433.94;;;9.80;100.00
73674;BME280;61975;48.660;10.164;2023-08-07T03:52:30;95440.78;;;9.97;100.00
73674;BME280;61975;48.660;10.164;2023-08-07T03:54:55;95427.19;;;9.81;100.00
73674;BME280;61975;48.660;10.164;2023-08-07T03:57:21;95453.28;;;9.77;100.00
73674;BME280;61975;48.660;10.164;2023-08-07T03:59:46;95437.53;;;9.84;100.00
73674;BME280;61975;48.660;10.164;2023-08-07T04:02:12;95446.28;;;9.86;100.00
73674;BME280;61975;48.660;10.164;2023-08-07T04:04:37;95436.66;;;9.77;100.00
73674;BME280;61975;48.660;10.164;2023-08-07T04:07:02;95439.06;;;9.78;100.00
73674;BME280;61975;48.660;10.164;2023-08-07T04:09:28;95458.44;;;9.78;100.00
73674;BME280;61975;48.660;10.164;2023-08-07T04:11:53;95450.06;;;9.71;100.00
73674;BME280;61975;48.660;10.164;2023-08-07T04:14:19;95437.91;;;9.83;100.00
73674;BME280;61975;48.660;10.164;2023-08-07T04:16:44;95445.84;;;9.84;100.00
73674;BME280;61975;48.660;10.164;2023-08-07T04:19:10;95449.00;;;9.83;100.00
73674;BME280;61975;48.660;10.164;2023-08-07T04:21:35;95469.59;;;9.85;100.00
73674;BME280;61975;48.660;10.164;2023-08-07T04:24:01;95450.97;;;9.82;100.00
73674;BME280;61975;48.660;10.164;2023-08-07T04:26:26;95463.31;;;9.88;100.00
73674;BME280;61975;48.660;10.164;2023-08-07T04:28:52;95444.28;;;9.87;100.00
73674;BME280;61975;48.660;10.164;2023-08-07T04:31:17;95441.88;;;9.85;100.00
73674;BME280;61975;48.660;10.164;2023-08-07T04:33:43;95459.00;;;9.98;100.00
73674;BME280;61975;48.660;10.164;2023-08-07T04:36:08;95451.44;;;9.91;100.00
73674;BME280;61975;48.660;10.164;2023-08-07T04:38:33;95462.09;;;9.89;100.00
73674;BME280;61975;48.660;10.164;2023-08-07T04:40:59;95479.16;;;9.91;100.00
73674;BME280;61975;48.660;10.164;2023-08-07T04:43:24;95456.50;;;9.82;100.00
73674;BME280;61975;48.660;10.164;2023-08-07T04:45:50;95468.44;;;9.86;100.00
73674;BME280;61975;48.660;10.164;2023-08-07T04:48:15;95453.03;;;9.89;100.00
73674;BME280;61975;48.660;10.164;2023-08-07T04:50:42;95458.91;;;9.84;100.00
73674;BME280;61975;48.660;10.164;2023-08-07T04:53:08;95472.13;;;10.01;100.00
73674;BME280;61975;48.660;10.164;2023-08-07T04:55:33;95485.53;;;9.95;100.00
73674;BME280;61975;48.660;10.164;2023-08-07T04:57:58;95477.28;;;10.02;100.00
73674;BME280;61975;48.660;10.164;2023-08-07T05:00:24;95488.00;;;10.04;100.00
73674;BME280;61975;48.660;10.164;2023-08-07T05:02:50;95498.28;;;10.03;100.00
73674;BME280;61975;48.660;10.164;2023-08-07T05:05:16;95480.88;;;10.03;100.00
73674;BME280;61975;48.660;10.164;2023-08-07T05:07:42;95488.81;;;10.04;100.00
73674;BME280;61975;48.660;10.164;2023-08-07T05:10:09;95479.75;;;10.11;100.00
73674;BME280;61975;48.660;10.164;2023-08-07T05:12:34;95487.38;;;10.17;100.00
73674;BME280;61975;48.660;10.164;2023-08-07T05:14:59;95504.00;;;10.17;100.00
73674;BME280;61975;48.660;10.164;2023-08-07T05:17:25;95502.44;;;10.23;100.00
73674;BME280;61975;48.660;10.164;2023-08-07T05:19:50;95487.75;;;10.19;100.00
73674;BME280;61975;48.660;10.164;2023-08-07T05:22:16;95500.88;;;10.22;100.00
73674;BME280;61975;48.660;10.164;2023-08-07T05:24:41;95501.31;;;10.28;100.00
73674;BME280;61975;48.660;10.164;2023-08-07T05:27:09;95493.78;;;10.28;100.00
73674;BME280;61975;48.660;10.164;2023-08-07T05:29:35;95503.31;;;10.31;100.00
73674;BME280;61975;48.660;10.164;2023-08-07T05:32:08;95509.81;;;10.52;100.00
73674;BME280;61975;48.660;10.164;2023-08-07T05:34:33;95508.16;;;10.44;100.00
73674;BME280;61975;48.660;10.164;2023-08-07T05:36:59;95520.81;;;10.38;100.00
73674;BME280;61975;48.660;10.164;2023-08-07T05:39:24;95498.69;;;10.49;100.00
73674;BME280;61975;48.660;10.164;2023-08-07T05:41:50;95512.94;;;10.47;100.00
73674;BME280;61975;48.660;10.164;2023-08-07T05:44:16;95509.09;;;10.62;100.00
73674;BME280;61975;48.660;10.164;2023-08-07T05:46:41;95507.91;;;10.63;100.00
73674;BME280;61975;48.660;10.164;2023-08-07T05:49:06;95524.09;;;10.54;100.00
73674;BME280;61975;48.660;10.164;2023-08-07T05:51:32;95507.09;;;10.59;100.00
73674;BME280;61975;48.660;10.164;2023-08-07T05:53:57;95507.09;;;10.59;100.00
73674;BME280;61975;48.660;10.164;2023-08-07T05:56:22;95513.06;;;10.65;100.00
73674;BME280;61975;48.660;10.164;2023-08-07T05:58:48;95533.72;;;10.67;100.00
73674;BME280;61975;48.660;10.164;2023-08-07T06:01:13;95537.25;;;10.64;100.00
73674;BME280;61975;48.660;10.164;2023-08-07T06:03:41;95524.22;;;10.75;100.00
73674;BME280;61975;48.660;10.164;2023-08-07T06:06:07;95541.31;;;10.81;100.00
73674;BME280;61975;48.660;10.164;2023-08-07T06:08:32;95535.72;;;10.70;100.00
73674;BME280;61975;48.660;10.164;2023-08-07T06:10:58;95538.16;;;10.82;100.00
73674;BME280;61975;48.660;10.164;2023-08-07T06:13:23;95536.63;;;10.88;100.00
73674;BME280;61975;48.660;10.164;2023-08-07T06:15:48;95540.97;;;10.89;100.00
73674;BME280;61975;48.660;10.164;2023-08-07T06:18:14;95538.97;;;10.86;100.00
73674;BME280;61975;48.660;10.164;2023-08-07T06:20:39;95535.47;;;10.96;100.00
73674;BME280;61975;48.660;10.164;2023-08-07T06:23:04;95540.66;;;11.05;100.00
73674;BME280;61975;48.660;10.164;2023-08-07T06:25:30;95540.66;;;11.01;100.00
73674;BME280;61975;48.660;10.164;2023-08-07T06:27:55;95546.66;;;11.07;100.00
73674;BME280;61975;48.660;10.164;2023-08-07T06:30:20;95541.91;;;11.11;100.00
73674;BME280;61975;48.660;10.164;2023-08-07T06:32:46;95540.00;;;11.26;100.00
73674;BME280;61975;48.660;10.164;2023-08-07T06:35:11;95536.09;;;11.37;100.00
73674;BME280;61975;48.660;10.164;2023-08-07T06:37:36;95542.06;;;11.43;100.00
73674;BME280;61975;48.660;10.164;2023-08-07T06:40:02;95542.03;;;11.39;100.00
73674;BME280;61975;48.660;10.164;2023-08-07T06:42:27;95529.31;;;11.35;100.00
73674;BME280;61975;48.660;10.164;2023-08-07T06:44:53;95530.13;;;11.39;100.00
73674;BME280;61975;48.660;10.164;2023-08-07T06:47:18;95559.50;;;11.40;100.00
73674;BME280;61975;48.660;10.164;2023-08-07T06:49:43;95556.31;;;11.38;100.00
73674;BME280;61975;48.660;10.164;2023-08-07T06:52:09;95550.72;;;11.31;100.00
73674;BME280;61975;48.660;10.164;2023-08-07T06:54:34;95555.97;;;11.43;100.00
73674;BME280;61975;48.660;10.164;2023-08-07T06:57:00;95565.06;;;11.40;100.00
73674;BME280;61975;48.660;10.164;2023-08-07T06:59:25;95548.81;;;11.49;100.00
73674;BME280;61975;48.660;10.164;2023-08-07T07:01:51;95548.84;;;11.56;100.00
73674;BME280;61975;48.660;10.164;2023-08-07T07:04:16;95553.16;;;11.39;100.00
73674;BME280;61975;48.660;10.164;2023-08-07T07:06:42;95555.19;;;11.46;100.00
73674;BME280;61975;48.660;10.164;2023-08-07T07:09:07;95574.28;;;11.54;100.00
73674;BME280;61975;48.660;10.164;2023-08-07T07:11:32;95573.06;;;11.52;100.00
73674;BME280;61975;48.660;10.164;2023-08-07T07:13:59;95566.72;;;11.55;100.00
73674;BME280;61975;48.660;10.164;2023-08-07T07:16:25;95554.91;;;11.68;100.00
73674;BME280;61975;48.660;10.164;2023-08-07T07:18:51;95574.00;;;11.77;100.00
73674;BME280;61975;48.660;10.164;2023-08-07T07:21:17;95567.22;;;11.81;100.00
73674;BME280;61975;48.660;10.164;2023-08-07T07:23:42;95560.88;;;11.84;100.00
73674;BME280;61975;48.660;10.164;2023-08-07T07:26:08;95567.28;;;11.92;96.35
73674;BME280;61975;48.660;10.164;2023-08-07T07:28:33;95562.13;;;11.97;98.38
73674;BME280;61975;48.660;10.164;2023-08-07T07:30:59;95570.44;;;11.94;97.70
73674;BME280;61975;48.660;10.164;2023-08-07T07:33:24;95570.44;;;11.87;95.31
73674;BME280;61975;48.660;10.164;2023-08-07T07:35:50;95578.78;;;11.94;94.38
73674;BME280;61975;48.660;10.164;2023-08-07T07:38:15;95579.59;;;11.91;92.73
73674;BME280;61975;48.660;10.164;2023-08-07T07:40:41;95595.88;;;11.89;92.13
73674;BME280;61975;48.660;10.164;2023-08-07T07:43:06;95567.66;;;11.90;90.43
73674;BME280;61975;48.660;10.164;2023-08-07T07:45:32;95570.06;;;11.99;90.48
73674;BME280;61975;48.660;10.164;2023-08-07T07:48:01;95587.16;;;12.08;90.89
73674;BME280;61975;48.660;10.164;2023-08-07T07:50:26;95582.44;;;12.19;89.16
73674;BME280;61975;48.660;10.164;2023-08-07T07:52:51;95614.25;;;12.21;87.58
73674;BME280;61975;48.660;10.164;2023-08-07T07:55:17;95592.38;;;12.20;86.76
73674;BME280;61975;48.660;10.164;2023-08-07T07:57:42;95590.38;;;12.17;84.91
73674;BME280;61975;48.660;10.164;2023-08-07T08:00:08;95614.63;;;12.13;89.29
73674;BME280;61975;48.660;10.164;2023-08-07T08:02:36;95625.38;;;12.14;89.13
73674;BME280;61975;48.660;10.164;2023-08-07T08:05:01;95614.25;;;12.25;86.42
73674;BME280;61975;48.660;10.164;2023-08-07T08:07:27;95600.34;;;12.39;84.84
73674;BME280;61975;48.660;10.164;2023-08-07T08:09:52;95635.78;;;12.45;83.58
73674;BME280;61975;48.660;10.164;2023-08-07T08:12:18;95608.34;;;12.51;81.21
73674;BME280;61975;48.660;10.164;2023-08-07T08:14:43;95633.00;;;12.70;82.28
73674;BME280;61975;48.660;10.164;2023-08-07T08:17:09;95623.47;;;12.81;78.97
73674;BME280;61975;48.660;10.164;2023-08-07T08:19:34;95609.16;;;12.93;78.55
73674;BME280;61975;48.660;10.164;2023-08-07T08:22:00;95609.13;;;12.97;78.25
73674;BME280;61975;48.660;10.164;2023-08-07T08:24:26;95613.13;;;13.10;78.34
73674;BME280;61975;48.660;10.164;2023-08-07T08:26:51;95609.13;;;13.21;78.36
73674;BME280;61975;48.660;10.164;2023-08-07T08:29:16;95613.09;;;13.31;79.01
73674;BME280;61975;48.660;10.164;2023-08-07T08:31:42;95608.72;;;13.37;78.37
73674;BME280;61975;48.660;10.164;2023-08-07T08:34:07;95618.25;;;13.36;77.37
73674;BME280;61975;48.660;10.164;2023-08-07T08:36:33;95637.78;;;13.36;80.05
73674;BME280;61975;48.660;10.164;2023-08-07T08:38:58;95628.25;;;13.05;80.08
73674;BME280;61975;48.660;10.164;2023-08-07T08:41:24;95629.03;;;13.09;82.65
73674;BME280;61975;48.660;10.164;2023-08-07T08:43:51;95644.16;;;12.87;83.97
73674;BME280;61975;48.660;10.164;2023-08-07T08:46:20;95642.53;;;12.48;84.99
73674;BME280;61975;48.660;10.164;2023-08-07T08:48:50;95645.34;;;12.58;87.76
73674;BME280;61975;48.660;10.164;2023-08-07T08:51:16;95649.72;;;12.63;92.14
73674;BME280;61975;48.660;10.164;2023-08-07T08:53:45;95639.78;;;12.69;91.17
73674;BME280;61975;48.660;10.164;2023-08-07T08:56:11;95646.91;;;12.63;88.29
73674;BME280;61975;48.660;10.164;2023-08-07T08:58:37;95647.31;;;12.75;90.74
73674;BME280;61975;48.660;10.164;2023-08-07T09:01:04;95651.34;;;12.85;90.76
73674;BME280;61975;48.660;10.164;2023-08-07T09:03:30;95659.28;;;12.93;86.68
73674;BME280;61975;48.660;10.164;2023-08-07T09:05:58;95654.91;;;12.96;88.90
73674;BME280;61975;48.660;10.164;2023-08-07T09:08:26;95644.16;;;12.87;84.28
73674;BME280;61975;48.660;10.164;2023-08-07T09:10:55;95654.94;;;12.99;86.10
73674;BME280;61975;48.660;10.164;2023-08-07T09:13:23;95648.97;;;13.08;83.72
73674;BME280;61975;48.660;10.164;2023-08-07T09:15:52;95650.16;;;13.17;84.87
73674;BME280;61975;48.660;10.164;2023-08-07T09:18:18;95647.38;;;13.14;82.39
73674;BME280;61975;48.660;10.164;2023-08-07T09:20:46;95653.72;;;13.18;84.42
73674;BME280;61975;48.660;10.164;2023-08-07T09:23:12;95651.34;;;13.23;81.40
73674;BME280;61975;48.660;10.164;2023-08-07T09:25:38;95666.88;;;13.28;80.21
73674;BME280;61975;48.660;10.164;2023-08-07T09:28:05;95662.47;;;13.37;82.77
73674;BME280;61975;48.660;10.164;2023-08-07T09:30:32;95653.28;;;13.51;82.26
73674;BME280;61975;48.660;10.164;2023-08-07T09:33:00;95653.22;;;13.68;81.41
73674;BME280;61975;48.660;10.164;2023-08-07T09:35:26;95663.16;;;13.80;80.41
73674;BME280;61975;48.660;10.164;2023-08-07T09:37:51;95661.56;;;13.82;77.70
73674;BME280;61975;48.660;10.164;2023-08-07T09:40:20;95661.16;;;13.88;77.74
73674;BME280;61975;48.660;10.164;2023-08-07T09:42:50;95672.75;;;13.72;74.70
73674;BME280;61975;48.660;10.164;2023-08-07T09:47:46;95678.34;;;13.72;77.59
73674;BME280;61975;48.660;10.164;2023-08-07T09:50:16;95667.16;;;13.86;73.40
73674;BME280;61975;48.660;10.164;2023-08-07T09:52:50;95685.91;;;13.82;70.40
73674;BME280;61975;48.660;10.164;2023-08-07T09:55:16;95679.88;;;13.87;70.02
73674;BME280;61975;48.660;10.164;2023-08-07T09:57:45;95671.13;;;13.92;68.90
73674;BME280;61975;48.660;10.164;2023-08-07T10:00:11;95674.28;;;13.98;67.89
73674;BME280;61975;48.660;10.164;2023-08-07T10:02:38;95682.25;;;13.96;67.04
73674;BME280;61975;48.660;10.164;2023-08-07T10:05:06;95678.25;;;14.00;66.66
73674;BME280;61975;48.660;10.164;2023-08-07T10:07:34;95664.28;;;14.07;66.42
73674;BME280;61975;48.660;10.164;2023-08-07T10:10:00;95656.59;;;14.32;66.23
73674;BME280;61975;48.660;10.164;2023-08-07T10:12:28;95670.84;;;14.52;64.64
73674;BME280;61975;48.660;10.164;2023-08-07T10:14:54;95662.03;;;14.60;64.22
73674;BME280;61975;48.660;10.164;2023-08-07T10:17:27;95662.84;;;14.57;63.51
73674;BME280;61975;48.660;10.164;2023-08-07T10:19:53;95658.47;;;14.60;62.64
73674;BME280;61975;48.660;10.164;2023-08-07T10:22:19;95665.94;;;14.73;62.59
73674;BME280;61975;48.660;10.164;2023-08-07T10:24:47;95660.66;;;14.86;62.92
73674;BME280;61975;48.660;10.164;2023-08-07T10:27:17;95677.41;;;14.89;61.68
73674;BME280;61975;48.660;10.164;2023-08-07T10:29:46;95673.94;;;14.71;60.92
73674;BME280;61975;48.660;10.164;2023-08-07T10:32:13;95674.78;;;14.65;61.74
73674;BME280;61975;48.660;10.164;2023-08-07T10:34:40;95686.81;;;14.58;60.29
73674;BME280;61975;48.660;10.164;2023-08-07T10:37:08;95662.91;;;14.43;60.41
73674;BME280;61975;48.660;10.164;2023-08-07T10:39:34;95680.09;;;14.45;61.08
73674;BME280;61975;48.660;10.164;2023-08-07T10:41:59;95668.03;;;14.59;61.78
73674;BME280;61975;48.660;10.164;2023-08-07T10:44:29;95668.28;;;14.82;62.90
73674;BME280;61975;48.660;10.164;2023-08-07T10:46:57;95672.16;;;14.98;63.45
73674;BME280;61975;48.660;10.164;2023-08-07T10:49:36;95670.56;;;14.97;61.48
73674;BME280;61975;48.660;10.164;2023-08-07T10:52:13;95672.16;;;14.98;61.33
73674;BME280;61975;48.660;10.164;2023-08-07T10:54:46;95672.19;;;14.95;62.24
73674;BME280;61975;48.660;10.164;2023-08-07T10:57:13;95685.66;;;15.07;61.06
73674;BME280;61975;48.660;10.164;2023-08-07T10:59:44;95688.50;;;15.03;59.81
73674;BME280;61975;48.660;10.164;2023-08-07T11:02:12;95673.69;;;15.06;59.20
73674;BME280;61975;48.660;10.164;2023-08-07T11:04:38;95676.97;;;14.94;59.02
73674;BME280;61975;48.660;10.164;2023-08-07T11:07:04;95664.63;;;14.92;60.25
73674;BME280;61975;48.660;10.164;2023-08-07T11:09:30;95668.09;;;15.06;59.95
73674;BME280;61975;48.660;10.164;2023-08-07T11:11:55;95676.03;;;15.11;59.62
73674;BME280;61975;48.660;10.164;2023-08-07T11:14:21;95681.50;;;15.29;59.25
73674;BME280;61975;48.660;10.164;2023-08-07T11:16:47;95691.78;;;15.42;60.62
73674;BME280;61975;48.660;10.164;2023-08-07T11:19:15;95690.97;;;15.45;59.39
73674;BME280;61975;48.660;10.164;2023-08-07T11:21:42;95686.81;;;15.60;57.60
73674;BME280;61975;48.660;10.164;2023-08-07T11:24:08;95673.59;;;15.64;56.70
73674;BME280;61975;48.660;10.164;2023-08-07T11:26:33;95664.56;;;15.46;56.42
73674;BME280;61975;48.660;10.164;2023-08-07T11:28:59;95663.25;;;15.61;56.74
73674;BME280;61975;48.660;10.164;2023-08-07T11:31:24;95678.34;;;15.71;56.26
73674;BME280;61975;48.660;10.164;2023-08-07T11:33:57;95678.06;;;15.58;56.68
73674;BME280;61975;48.660;10.164;2023-08-07T11:36:24;95677.28;;;15.54;55.89
73674;BME280;61975;48.660;10.164;2023-08-07T11:38:50;95682.84;;;15.61;56.57
73674;BME280;61975;48.660;10.164;2023-08-07T11:41:16;95684.84;;;15.57;54.67
73674;BME280;61975;48.660;10.164;2023-08-07T11:43:42;95688.44;;;15.61;54.90
73674;BME280;61975;48.660;10.164;2023-08-07T11:46:09;95684.50;;;15.52;54.82
73674;BME280;61975;48.660;10.164;2023-08-07T11:48:37;95687.81;;;15.40;55.70
73674;BME280;61975;48.660;10.164;2023-08-07T11:51:03;95678.25;;;15.37;55.79
73674;BME280;61975;48.660;10.164;2023-08-07T11:53:30;95694.59;;;15.42;56.14
73674;BME280;61975;48.660;10.164;2023-08-07T11:55:58;95719.69;;;15.53;55.81
73674;BME280;61975;48.660;10.164;2023-08-07T11:58:25;95695.63;;;15.59;55.91
73674;BME280;61975;48.660;10.164;2023-08-07T12:00:51;95700.44;;;15.58;55.95
73674;BME280;61975;48.660;10.164;2023-08-07T12:03:31;95712.28;;;15.73;56.32
73674;BME280;61975;48.660;10.164;2023-08-07T12:06:02;95707.31;;;15.91;56.11
73674;BME280;61975;48.660;10.164;2023-08-07T12:11:11;95725.94;;;15.67;56.74
73674;BME280;61975;48.660;10.164;2023-08-07T12:16:06;95714.41;;;15.62;56.71
73674;BME280;61975;48.660;10.164;2023-08-07T12:18:32;95718.88;;;15.52;56.92
73674;BME280;61975;48.660;10.164;2023-08-07T12:21:00;95721.34;;;15.43;57.56
73674;BME280;61975;48.660;10.164;2023-08-07T12:23:26;95726.94;;;15.43;58.45
73674;BME280;61975;48.660;10.164;2023-08-07T12:25:52;95730.28;;;15.24;58.66
73674;BME280;61975;48.660;10.164;2023-08-07T12:28:18;95731.97;;;15.15;59.02
73674;BME280;61975;48.660;10.164;2023-08-07T12:30:45;95731.44;;;15.27;59.32
73674;BME280;61975;48.660;10.164;2023-08-07T12:33:11;95740.28;;;15.22;59.27
73674;BME280;61975;48.660;10.164;2023-08-07T12:35:37;95744.97;;;15.35;58.73
73674;BME280;61975;48.660;10.164;2023-08-07T12:38:02;95740.25;;;15.25;59.15
73674;BME280;61975;48.660;10.164;2023-08-07T12:40:29;95747.84;;;15.25;58.72
73674;BME280;61975;48.660;10.164;2023-08-07T12:42:55;95748.59;;;15.32;58.56
73674;BME280;61975;48.660;10.164;2023-08-07T12:45:21;95749.38;;;15.36;58.56
73674;BME280;61975;48.660;10.164;2023-08-07T12:47:46;95755.72;;;15.44;58.08
73674;BME280;61975;48.660;10.164;2023-08-07T12:50:12;95750.84;;;15.55;57.75
73674;BME280;61975;48.660;10.164;2023-08-07T12:52:38;95756.41;;;15.58;57.64